Weather observations for the past three days for
Nassau International Airport
Imperial (Metric)
Date Time (edt) Wind (mph) Vis. (mi.) Weather Sky Cond. Temperature (ºF) Relative Humidity Wind Chill (°F) Heat Index (°F) Pressure Precipitation (in)
Air Dwpt 6 hour altimeter (in) sea level (mb) 1 hr 3 hr 6 hr
Max. Min.
10 10:00 S 17 0.00 Mostly Cloudy BKN020 84.2 73.4 70% 91 30.06 0.0
10 09:00 S 16 0.00 Partly Cloudy BKN020 SCT220 84.2 73.4 70% 91 30.05 0.0
10 08:00 SE 14 0.00 Mostly Cloudy SCT020 BKN220 82.4 73.4 74% 88 30.04 0.0
10 07:00 SE 9 0.00 Mostly Cloudy SCT020 BKN200 80.6 73.4 79% 85 30.03 0.0
10 06:00 SE 10 0.00 Mostly Cloudy SCT020 BKN200 80.6 73.4 79% 85 30.01 0.0
10 05:00 SE 10 0.00 Mostly Cloudy SCT020 BKN200 80.6 73.4 79% 85 29.99 0.0
10 04:00 SE 10 0.00 Mostly Cloudy FEW020 BKN240 78.8 73.4 84% 82 29.98 0.0
10 03:00 SE 9 0.00 Mostly Cloudy FEW020 BKN240 80.6 73.4 79% 85 29.99 0.0
10 02:00 SE 7 0.00 Mostly Cloudy FEW020 BKN240 80.6 73.4 79% 85 30.01 0.0
10 01:00 SE 8 0.00 Mostly Cloudy SCT020 BKN240 80.6 75.2 84% 86 30.02 0.0
10 00:00 SE 12 0.00 Mostly Cloudy SCT020 BKN240 80.6 75.2 84% 86 30.03 0.0
09 23:00 SE 10 0.00 Mostly Cloudy SCT020 BKN240 82.4 75.2 79% 89 30.02 0.0
09 22:00 SE 12 0.00 Mostly Cloudy SCT022 BKN240 82.4 75.2 79% 89 29.99 0.0
09 21:00 S 9 0.00 Mostly Cloudy SCT022 BKN240 82.4 73.4 74% 88 29.98 0.0
09 20:00 S 12 0.00 Mostly Cloudy FEW022 BKN240 82.4 73.4 74% 88 29.96 0.0
09 19:00 S 13 0.00 Mostly Cloudy FEW025 BKN250 84.2 71.6 66% 90 29.95 0.0
09 18:00 S 14 0.00 Mostly Cloudy BKN025 BKN250 84.2 73.4 70% 91 29.95 0.0
09 17:00 S 15 0.00 Mostly Cloudy FEW030 BKN250 86 73.4 66% 93 29.95 0.0
09 16:00 S 16 0.00 Mostly Cloudy FEW030 BKN250 86 71.6 62% 92 29.95 0.0
09 15:00 S 15 0.00 Mostly Cloudy SCT030 BKN250 87.8 71.6 59% 94 29.97 0.0
09 14:00 S 13 0.00 Partly Cloudy SCT025 87.8 71.6 59% 94 29.99 0.0
09 13:00 S 12 0.00 Partly Cloudy SCT025 87.8 75.2 66% 98 30 0.0
09 12:00 S 14 0.00 Partly Cloudy SCT025 86 73.4 66% 93 30.01 0.0
09 11:00 S 14 0.00 Partly Cloudy SCT025 86 73.4 66% 93 30.01 0.0
09 10:00 S 14 0.00 Partly Cloudy SCT025 84.2 73.4 70% 91 30 0.0
09 09:00 S 15 0.00 Partly Cloudy SCT022 86 73.4 66% 93 29.99 0.0
09 08:00 S 13 0.00 Partly Cloudy SCT022 82.4 73.4 74% 88 29.98 0.0
09 07:00 S 8 0.00 Partly Cloudy SCT022 80.6 73.4 79% 85 29.97 0.0
09 06:00 S 6 0.00 Partly Cloudy SCT020 78.8 73.4 84% 82 29.96 0.0
09 05:00 SE 8 0.00 A Few Clouds FEW020 78.8 73.4 84% 82 29.95 0.0
09 04:00 S 7 0.00 A Few Clouds FEW020 78.8 71.6 79% 82 29.95 0.0
09 03:00 S 8 0.00 A Few Clouds FEW020 80.6 73.4 79% 85 29.95 0.0
09 02:00 SE 9 0.00 A Few Clouds FEW020 80.6 75.2 84% 86 29.97 0.0
09 01:00 SE 9 0.00 A Few Clouds FEW020 82.4 75.2 79% 89 29.99 0.0
09 00:00 SE 7 0.00 A Few Clouds FEW020 82.4 73.4 74% 88 30 0.0
08 23:00 E 6 0.00 A Few Clouds FEW020 82.4 75.2 79% 89 30 0.0
08 22:00 E 6 0.00 A Few Clouds FEW020 82.4 75.2 79% 89 29.98 0.0
08 21:00 E 6 0.00 A Few Clouds FEW020 82.4 73.4 74% 88 29.96 0.0
08 20:00 E 9 0.00 A Few Clouds FEW020 82.4 73.4 74% 88 29.94 0.0
08 19:00 E 9 0.00 A Few Clouds FEW019 82.4 73.4 74% 88 29.95 0.0
08 18:00 NE 10 0.00 Partly Cloudy SCT020 84.2 77 79% 94 29.94 0.0
08 17:00 NE 10 0.00 Partly Cloudy SCT020 84.2 75.2 74% 92 29.94 0.0
08 16:00 NE 10 0.00 A Few Clouds FEW022 86 75.2 70% 95 29.95 0.0
08 15:00 NE 9 0.00 A Few Clouds FEW025 86 77 75% 97 29.97 0.0
08 14:00 N 10 0.00 A Few Clouds FEW025 84.2 73.4 70% 91 29.99 0.0
08 13:00 NW 9 0.00 A Few Clouds FEW025 86 71.6 62% 92 30 0.0
08 12:00 NW 9 0.00 A Few Clouds FEW022 86 71.6 62% 92 30.02 0.0
08 11:00 W 7 0.00 Partly Cloudy SCT020 86 71.6 62% 92 30.03 0.0
08 10:00 SW 8 0.00 Partly Cloudy SCT018 82.4 73.4 74% 88 30.02 0.0
08 09:00 SW 9 0.00 Partly Cloudy SCT018 80.6 75.2 84% 86 30 0.0
08 08:00 SW 9 0.00 Partly Cloudy SCT018 80.6 75.2 84% 86 29.99 0.0
08 07:00 SW 3 0.00 Partly Cloudy SCT018 77 75.2 94% 78 29.98 0.0
08 06:00 S 3 0.00 A Few Clouds FEW018 75.2 73.4 94% 74 29.95 0.0
08 05:00 Vrbl 2 0.00 A Few Clouds FEW018 75.2 71.6 89% 75 29.95 0.0
08 04:00 Calm 0.00 A Few Clouds FEW020 75.2 71.6 89% 75 29.94 0.0
08 03:00 Calm 0.00 A Few Clouds FEW020 77 73.4 89% 78 29.96 0.0
08 02:00 Vrbl 1 0.00 A Few Clouds FEW025 77 73.4 89% 78 29.97 0.0
08 01:00 Vrbl 2 0.00 A Few Clouds FEW030 78.8 73.4 84% 82 29.99 0.0
08 00:00 Vrbl 2 0.00 NULL NULL 78.8 73.4 84% 82 30 0.0
07 23:00 E 5 0.00 Showers in Vicinity FEW030 BKN050 82.4 71.6 70% 87 30.01 0.0
07 22:00 E 5 0.00 Showers in Vicinity BKN020 80.6 75.2 84% 86 30.01 0.0
07 21:00 NE 5 0.00 Showers in Vicinity BKN020 82.4 75.2 79% 89 30 0.0
07 20:00 NE 3 0.00 Showers in Vicinity BKN020 82.4 73.4 74% 88 29.99 0.0
07 19:00 Vrbl 2 0.00 Showers in Vicinity BKN020 82.4 73.4 74% 88 29.98 0.0
07 18:00 N 6 0.00 Light Showers Rain SCT025 SCT045 84.2 73.4 70% 91 29.98 0.0
07 17:00 S 3 0.00 Partly Cloudy SCT025 84.2 73.4 70% 91 29.98 0.0
07 16:00 N 6 G 18 0.00 A Few Clouds FEW025 84.2 73.4 70% 91 29.98 0.0
07 15:00 NE 7 0.00 A Few Clouds FEW025 84.2 75.2 74% 92 29.99 0.0
07 14:00 N 9 0.00 Partly Cloudy SCT025 82.4 75.2 79% 89 30.02 0.0
07 13:00 NE 6 0.00 Partly Cloudy SCT025 86 75.2 70% 95 30.04 0.0
07 12:00 NE 5 0.00 Mostly Cloudy BKN025 82.4 75.2 79% 89 30.05 0.0
07 11:00 N 7 0.00 Mostly Cloudy BKN025 80.6 75.2 84% 86 30.05 0.0
Date Time (edt) Wind (mph) Vis. (mi.) Weather Sky Cond. Air Dwpt Max. Min. Relative Humidity Wind Chill (°F) Heat Index (°F) altimeter (in) sea level (mb) 1 hr 3 hr 6 hr
6 hour
Temperature (ºF) Pressure Precipitation (in)